sensor_id;sensor_type;location;lat;lon;timestamp;P1;durP1;ratioP1;P2;durP2;ratioP2
52104;SDS011;38103;42.776;23.112;2023-04-01T00:00:26;18.67;;;4.90;;
52104;SDS011;38103;42.776;23.112;2023-04-01T00:02:51;18.73;;;4.97;;
52104;SDS011;38103;42.776;23.112;2023-04-01T00:05:17;16.35;;;4.47;;
52104;SDS011;38103;42.776;23.112;2023-04-01T00:07:42;16.73;;;4.35;;
52104;SDS011;38103;42.776;23.112;2023-04-01T00:10:10;14.10;;;3.92;;
52104;SDS011;38103;42.776;23.112;2023-04-01T00:12:36;16.17;;;4.57;;
52104;SDS011;38103;42.776;23.112;2023-04-01T00:15:03;19.20;;;5.05;;
52104;SDS011;38103;42.776;23.112;2023-04-01T00:17:30;18.80;;;4.20;;
52104;SDS011;38103;42.776;23.112;2023-04-01T00:19:55;14.10;;;4.00;;
52104;SDS011;38103;42.776;23.112;2023-04-01T00:22:21;13.70;;;4.40;;
52104;SDS011;38103;42.776;23.112;2023-04-01T00:24:47;12.85;;;4.20;;
52104;SDS011;38103;42.776;23.112;2023-04-01T00:27:13;16.67;;;4.22;;
52104;SDS011;38103;42.776;23.112;2023-04-01T00:29:41;14.63;;;4.22;;
52104;SDS011;38103;42.776;23.112;2023-04-01T00:32:07;17.67;;;4.85;;
52104;SDS011;38103;42.776;23.112;2023-04-01T00:34:32;14.18;;;4.82;;
52104;SDS011;38103;42.776;23.112;2023-04-01T00:36:58;16.65;;;4.13;;
52104;SDS011;38103;42.776;23.112;2023-04-01T00:39:23;16.58;;;3.55;;
52104;SDS011;38103;42.776;23.112;2023-04-01T00:41:48;14.85;;;3.78;;
52104;SDS011;38103;42.776;23.112;2023-04-01T00:44:19;18.33;;;3.53;;
52104;SDS011;38103;42.776;23.112;2023-04-01T00:46:49;11.18;;;3.55;;
52104;SDS011;38103;42.776;23.112;2023-04-01T00:49:15;18.80;;;3.55;;
52104;SDS011;38103;42.776;23.112;2023-04-01T00:51:44;13.93;;;4.43;;
52104;SDS011;38103;42.776;23.112;2023-04-01T00:54:13;13.60;;;3.85;;
52104;SDS011;38103;42.776;23.112;2023-04-01T00:56:47;14.32;;;4.00;;
52104;SDS011;38103;42.776;23.112;2023-04-01T00:59:18;16.55;;;4.57;;
52104;SDS011;38103;42.776;23.112;2023-04-01T01:01:48;12.10;;;4.13;;
52104;SDS011;38103;42.776;23.112;2023-04-01T01:04:47;13.93;;;4.63;;
52104;SDS011;38103;42.776;23.112;2023-04-01T01:12:40;14.23;;;3.92;;
52104;SDS011;38103;42.776;23.112;2023-04-01T01:15:12;14.32;;;4.40;;
52104;SDS011;38103;42.776;23.112;2023-04-01T01:17:43;13.18;;;4.25;;
52104;SDS011;38103;42.776;23.112;2023-04-01T01:29:13;14.77;;;4.30;;
52104;SDS011;38103;42.776;23.112;2023-04-01T01:32:07;16.35;;;3.88;;
52104;SDS011;38103;42.776;23.112;2023-04-01T01:37:40;12.18;;;4.00;;
52104;SDS011;38103;42.776;23.112;2023-04-01T01:40:09;20.70;;;4.13;;
52104;SDS011;38103;42.776;23.112;2023-04-01T01:42:37;14.60;;;4.55;;
52104;SDS011;38103;42.776;23.112;2023-04-01T01:45:06;17.95;;;4.03;;
52104;SDS011;38103;42.776;23.112;2023-04-01T01:47:33;14.73;;;3.95;;
52104;SDS011;38103;42.776;23.112;2023-04-01T01:50:00;14.98;;;4.35;;
52104;SDS011;38103;42.776;23.112;2023-04-01T01:52:28;11.40;;;3.95;;
52104;SDS011;38103;42.776;23.112;2023-04-01T01:54:54;12.63;;;3.78;;
52104;SDS011;38103;42.776;23.112;2023-04-01T01:57:33;14.27;;;3.47;;
52104;SDS011;38103;42.776;23.112;2023-04-01T02:00:03;16.23;;;3.55;;
52104;SDS011;38103;42.776;23.112;2023-04-01T02:02:47;12.75;;;3.53;;
52104;SDS011;38103;42.776;23.112;2023-04-01T02:05:18;14.25;;;4.40;;
52104;SDS011;38103;42.776;23.112;2023-04-01T02:07:48;15.77;;;3.10;;
52104;SDS011;38103;42.776;23.112;2023-04-01T02:10:22;11.88;;;3.45;;
52104;SDS011;38103;42.776;23.112;2023-04-01T02:12:52;11.63;;;3.25;;
52104;SDS011;38103;42.776;23.112;2023-04-01T02:15:22;12.55;;;3.15;;
52104;SDS011;38103;42.776;23.112;2023-04-01T02:17:55;10.15;;;3.05;;
52104;SDS011;38103;42.776;23.112;2023-04-01T02:20:22;11.25;;;2.90;;
52104;SDS011;38103;42.776;23.112;2023-04-01T02:22:49;13.43;;;3.72;;
52104;SDS011;38103;42.776;23.112;2023-04-01T02:25:22;13.35;;;3.20;;
52104;SDS011;38103;42.776;23.112;2023-04-01T02:27:50;15.35;;;3.53;;
52104;SDS011;38103;42.776;23.112;2023-04-01T02:30:17;13.18;;;3.97;;
52104;SDS011;38103;42.776;23.112;2023-04-01T02:32:43;10.95;;;3.70;;
52104;SDS011;38103;42.776;23.112;2023-04-01T02:35:10;14.43;;;3.53;;
52104;SDS011;38103;42.776;23.112;2023-04-01T02:37:38;15.88;;;3.85;;
52104;SDS011;38103;42.776;23.112;2023-04-01T02:40:07;13.50;;;4.07;;
52104;SDS011;38103;42.776;23.112;2023-04-01T02:42:34;15.02;;;4.55;;
52104;SDS011;38103;42.776;23.112;2023-04-01T02:45:00;19.13;;;4.53;;
52104;SDS011;38103;42.776;23.112;2023-04-01T02:47:25;16.60;;;3.95;;
52104;SDS011;38103;42.776;23.112;2023-04-01T02:49:51;16.90;;;3.38;;
52104;SDS011;38103;42.776;23.112;2023-04-01T02:52:22;14.13;;;3.50;;
52104;SDS011;38103;42.776;23.112;2023-04-01T02:54:49;16.92;;;3.80;;
52104;SDS011;38103;42.776;23.112;2023-04-01T02:57:14;17.35;;;4.93;;
52104;SDS011;38103;42.776;23.112;2023-04-01T02:59:40;14.75;;;3.67;;
52104;SDS011;38103;42.776;23.112;2023-04-01T03:02:05;13.80;;;4.20;;
52104;SDS011;38103;42.776;23.112;2023-04-01T03:04:31;13.13;;;3.92;;
52104;SDS011;38103;42.776;23.112;2023-04-01T03:06:57;16.23;;;3.78;;
52104;SDS011;38103;42.776;23.112;2023-04-01T03:09:23;10.50;;;3.33;;
52104;SDS011;38103;42.776;23.112;2023-04-01T03:11:48;15.48;;;3.88;;
52104;SDS011;38103;42.776;23.112;2023-04-01T03:14:13;14.13;;;3.35;;
52104;SDS011;38103;42.776;23.112;2023-04-01T03:16:39;9.60;;;3.47;;
52104;SDS011;38103;42.776;23.112;2023-04-01T03:19:04;14.82;;;4.10;;
52104;SDS011;38103;42.776;23.112;2023-04-01T03:21:30;12.20;;;3.63;;
52104;SDS011;38103;42.776;23.112;2023-04-01T03:23:55;16.00;;;4.28;;
52104;SDS011;38103;42.776;23.112;2023-04-01T03:26:21;13.27;;;3.38;;
52104;SDS011;38103;42.776;23.112;2023-04-01T03:28:46;12.77;;;3.17;;
52104;SDS011;38103;42.776;23.112;2023-04-01T03:31:12;11.40;;;3.20;;
52104;SDS011;38103;42.776;23.112;2023-04-01T03:33:38;11.73;;;3.33;;
52104;SDS011;38103;42.776;23.112;2023-04-01T03:36:03;10.85;;;2.85;;
52104;SDS011;38103;42.776;23.112;2023-04-01T03:38:31;13.00;;;3.05;;
52104;SDS011;38103;42.776;23.112;2023-04-01T03:40:57;14.68;;;3.17;;
52104;SDS011;38103;42.776;23.112;2023-04-01T03:43:23;12.18;;;3.10;;
52104;SDS011;38103;42.776;23.112;2023-04-01T03:45:49;9.13;;;2.92;;
52104;SDS011;38103;42.776;23.112;2023-04-01T03:48:16;11.95;;;3.08;;
52104;SDS011;38103;42.776;23.112;2023-04-01T03:50:41;12.65;;;3.30;;
52104;SDS011;38103;42.776;23.112;2023-04-01T03:53:07;13.85;;;3.20;;
52104;SDS011;38103;42.776;23.112;2023-04-01T03:55:33;11.60;;;3.05;;
52104;SDS011;38103;42.776;23.112;2023-04-01T03:58:01;13.05;;;3.30;;
52104;SDS011;38103;42.776;23.112;2023-04-01T04:00:27;14.13;;;3.10;;
52104;SDS011;38103;42.776;23.112;2023-04-01T04:02:54;14.43;;;3.65;;
52104;SDS011;38103;42.776;23.112;2023-04-01T04:05:21;12.73;;;3.45;;
52104;SDS011;38103;42.776;23.112;2023-04-01T04:07:50;11.60;;;3.20;;
52104;SDS011;38103;42.776;23.112;2023-04-01T04:10:16;10.48;;;2.88;;
52104;SDS011;38103;42.776;23.112;2023-04-01T04:12:41;9.93;;;2.92;;
52104;SDS011;38103;42.776;23.112;2023-04-01T04:15:07;11.18;;;3.20;;
52104;SDS011;38103;42.776;23.112;2023-04-01T04:17:33;15.73;;;5.13;;
52104;SDS011;38103;42.776;23.112;2023-04-01T04:19:58;11.52;;;3.30;;
52104;SDS011;38103;42.776;23.112;2023-04-01T04:22:24;14.00;;;3.55;;
52104;SDS011;38103;42.776;23.112;2023-04-01T04:24:49;13.68;;;3.75;;
52104;SDS011;38103;42.776;23.112;2023-04-01T04:27:15;11.02;;;3.20;;
52104;SDS011;38103;42.776;23.112;2023-04-01T04:29:40;12.00;;;3.20;;
52104;SDS011;38103;42.776;23.112;2023-04-01T04:32:06;13.63;;;3.50;;
52104;SDS011;38103;42.776;23.112;2023-04-01T04:34:31;12.93;;;3.53;;
52104;SDS011;38103;42.776;23.112;2023-04-01T04:36:57;13.65;;;3.80;;
52104;SDS011;38103;42.776;23.112;2023-04-01T04:39:22;12.25;;;4.00;;
52104;SDS011;38103;42.776;23.112;2023-04-01T04:41:48;12.15;;;3.90;;
52104;SDS011;38103;42.776;23.112;2023-04-01T04:44:13;14.43;;;3.88;;
52104;SDS011;38103;42.776;23.112;2023-04-01T04:46:39;12.13;;;3.83;;
52104;SDS011;38103;42.776;23.112;2023-04-01T04:49:05;13.65;;;4.13;;
52104;SDS011;38103;42.776;23.112;2023-04-01T04:51:30;11.10;;;3.90;;
52104;SDS011;38103;42.776;23.112;2023-04-01T04:53:58;12.30;;;4.03;;
52104;SDS011;38103;42.776;23.112;2023-04-01T04:56:25;14.82;;;3.47;;
52104;SDS011;38103;42.776;23.112;2023-04-01T04:58:51;15.38;;;3.80;;
52104;SDS011;38103;42.776;23.112;2023-04-01T05:01:17;12.73;;;3.53;;
52104;SDS011;38103;42.776;23.112;2023-04-01T05:03:43;11.60;;;3.95;;
52104;SDS011;38103;42.776;23.112;2023-04-01T05:06:09;12.85;;;3.63;;
52104;SDS011;38103;42.776;23.112;2023-04-01T05:08:37;9.77;;;3.20;;
52104;SDS011;38103;42.776;23.112;2023-04-01T05:11:06;13.55;;;3.92;;
52104;SDS011;38103;42.776;23.112;2023-04-01T05:13:34;12.05;;;3.72;;
52104;SDS011;38103;42.776;23.112;2023-04-01T05:16:00;8.38;;;3.05;;
52104;SDS011;38103;42.776;23.112;2023-04-01T05:18:25;15.45;;;3.38;;
52104;SDS011;38103;42.776;23.112;2023-04-01T05:20:52;15.68;;;3.60;;
52104;SDS011;38103;42.776;23.112;2023-04-01T05:23:19;13.80;;;3.20;;
52104;SDS011;38103;42.776;23.112;2023-04-01T05:25:46;13.02;;;3.38;;
52104;SDS011;38103;42.776;23.112;2023-04-01T05:28:15;9.45;;;3.10;;
52104;SDS011;38103;42.776;23.112;2023-04-01T05:30:41;11.77;;;3.60;;
52104;SDS011;38103;42.776;23.112;2023-04-01T05:33:08;13.68;;;3.50;;
52104;SDS011;38103;42.776;23.112;2023-04-01T05:35:35;14.98;;;3.85;;
52104;SDS011;38103;42.776;23.112;2023-04-01T05:38:00;15.85;;;3.97;;
52104;SDS011;38103;42.776;23.112;2023-04-01T05:40:26;12.93;;;3.83;;
52104;SDS011;38103;42.776;23.112;2023-04-01T05:42:53;15.48;;;4.10;;
52104;SDS011;38103;42.776;23.112;2023-04-01T05:45:18;10.48;;;3.55;;
52104;SDS011;38103;42.776;23.112;2023-04-01T05:47:43;12.60;;;4.18;;
52104;SDS011;38103;42.776;23.112;2023-04-01T05:50:09;11.32;;;3.85;;
52104;SDS011;38103;42.776;23.112;2023-04-01T05:52:35;17.20;;;3.55;;
52104;SDS011;38103;42.776;23.112;2023-04-01T05:55:01;14.13;;;3.70;;
52104;SDS011;38103;42.776;23.112;2023-04-01T05:57:27;15.45;;;3.70;;
52104;SDS011;38103;42.776;23.112;2023-04-01T05:59:53;12.32;;;4.05;;
52104;SDS011;38103;42.776;23.112;2023-04-01T06:02:18;13.57;;;3.90;;
52104;SDS011;38103;42.776;23.112;2023-04-01T06:04:44;14.82;;;4.10;;
52104;SDS011;38103;42.776;23.112;2023-04-01T06:07:13;19.20;;;3.78;;
52104;SDS011;38103;42.776;23.112;2023-04-01T06:09:41;14.55;;;4.75;;
52104;SDS011;38103;42.776;23.112;2023-04-01T06:20:29;14.40;;;4.80;;
52104;SDS011;38103;42.776;23.112;2023-04-01T06:31:05;16.88;;;7.40;;
52104;SDS011;38103;42.776;23.112;2023-04-01T06:39:19;19.85;;;7.53;;
52104;SDS011;38103;42.776;23.112;2023-04-01T06:44:42;18.77;;;7.85;;
52104;SDS011;38103;42.776;23.112;2023-04-01T06:57:49;19.67;;;8.90;;
52104;SDS011;38103;42.776;23.112;2023-04-01T07:02:54;23.10;;;9.10;;
52104;SDS011;38103;42.776;23.112;2023-04-01T07:05:23;22.38;;;9.48;;
52104;SDS011;38103;42.776;23.112;2023-04-01T07:07:50;28.33;;;10.35;;
52104;SDS011;38103;42.776;23.112;2023-04-01T07:10:33;19.50;;;10.18;;
52104;SDS011;38103;42.776;23.112;2023-04-01T07:13:12;24.33;;;9.07;;
52104;SDS011;38103;42.776;23.112;2023-04-01T07:19:31;24.15;;;9.40;;
52104;SDS011;38103;42.776;23.112;2023-04-01T07:21:50;32.05;;;18.33;;
52104;SDS011;38103;42.776;23.112;2023-04-01T07:26:54;24.20;;;10.88;;
52104;SDS011;38103;42.776;23.112;2023-04-01T07:29:21;25.65;;;13.00;;
52104;SDS011;38103;42.776;23.112;2023-04-01T07:56:12;22.05;;;9.98;;
52104;SDS011;38103;42.776;23.112;2023-04-01T08:08:56;20.70;;;10.45;;
52104;SDS011;38103;42.776;23.112;2023-04-01T08:16:45;34.40;;;18.33;;
52104;SDS011;38103;42.776;23.112;2023-04-01T08:22:09;26.90;;;13.68;;
52104;SDS011;38103;42.776;23.112;2023-04-01T08:24:45;28.42;;;12.77;;
52104;SDS011;38103;42.776;23.112;2023-04-01T08:30:24;23.45;;;10.85;;
52104;SDS011;38103;42.776;23.112;2023-04-01T08:32:57;33.75;;;14.30;;
52104;SDS011;38103;42.776;23.112;2023-04-01T08:35:31;26.63;;;14.77;;
52104;SDS011;38103;42.776;23.112;2023-04-01T08:38:11;20.70;;;11.13;;
52104;SDS011;38103;42.776;23.112;2023-04-01T08:41:00;23.88;;;10.32;;
52104;SDS011;38103;42.776;23.112;2023-04-01T09:03:10;20.35;;;6.53;;
52104;SDS011;38103;42.776;23.112;2023-04-01T09:20:41;14.55;;;5.32;;
52104;SDS011;38103;42.776;23.112;2023-04-01T09:23:34;18.42;;;5.68;;
52104;SDS011;38103;42.776;23.112;2023-04-01T09:39:58;20.60;;;5.63;;
52104;SDS011;38103;42.776;23.112;2023-04-01T10:01:57;17.25;;;4.85;;
52104;SDS011;38103;42.776;23.112;2023-04-01T10:34:40;12.05;;;3.25;;
52104;SDS011;38103;42.776;23.112;2023-04-01T10:45:17;13.70;;;2.92;;
52104;SDS011;38103;42.776;23.112;2023-04-01T11:13:01;16.40;;;2.97;;
52104;SDS011;38103;42.776;23.112;2023-04-01T11:43:14;14.48;;;4.10;;
52104;SDS011;38103;42.776;23.112;2023-04-01T11:45:49;16.90;;;4.60;;
52104;SDS011;38103;42.776;23.112;2023-04-01T11:48:25;12.07;;;3.80;;
52104;SDS011;38103;42.776;23.112;2023-04-01T12:38:33;11.35;;;3.85;;
52104;SDS011;38103;42.776;23.112;2023-04-01T12:54:48;11.38;;;3.63;;
52104;SDS011;38103;42.776;23.112;2023-04-01T13:17:01;12.43;;;4.40;;
52104;SDS011;38103;42.776;23.112;2023-04-01T13:25:09;10.15;;;2.83;;
52104;SDS011;38103;42.776;23.112;2023-04-01T13:27:49;13.45;;;6.68;;
52104;SDS011;38103;42.776;23.112;2023-04-01T13:32:47;13.27;;;4.30;;
52104;SDS011;38103;42.776;23.112;2023-04-01T13:43:14;6.63;;;2.60;;
52104;SDS011;38103;42.776;23.112;2023-04-01T14:02:50;8.15;;;2.75;;
52104;SDS011;38103;42.776;23.112;2023-04-01T14:08:30;8.40;;;2.58;;
52104;SDS011;38103;42.776;23.112;2023-04-01T14:21:43;8.38;;;2.55;;
52104;SDS011;38103;42.776;23.112;2023-04-01T14:32:24;8.75;;;2.50;;
52104;SDS011;38103;42.776;23.112;2023-04-01T14:35:15;7.18;;;2.20;;
52104;SDS011;38103;42.776;23.112;2023-04-01T14:37:58;11.48;;;3.40;;
52104;SDS011;38103;42.776;23.112;2023-04-01T14:43:41;10.48;;;3.40;;
52104;SDS011;38103;42.776;23.112;2023-04-01T14:46:41;7.53;;;2.42;;
52104;SDS011;38103;42.776;23.112;2023-04-01T14:52:04;6.47;;;2.03;;
52104;SDS011;38103;42.776;23.112;2023-04-01T14:54:36;8.95;;;2.17;;
52104;SDS011;38103;42.776;23.112;2023-04-01T14:57:26;8.10;;;2.25;;
52104;SDS011;38103;42.776;23.112;2023-04-01T14:59:54;6.55;;;2.10;;
52104;SDS011;38103;42.776;23.112;2023-04-01T15:07:47;7.70;;;2.33;;
52104;SDS011;38103;42.776;23.112;2023-04-01T15:10:48;7.20;;;2.20;;
52104;SDS011;38103;42.776;23.112;2023-04-01T15:16:08;8.18;;;2.80;;
52104;SDS011;38103;42.776;23.112;2023-04-01T15:24:24;10.35;;;2.40;;
52104;SDS011;38103;42.776;23.112;2023-04-01T16:10:35;10.95;;;4.70;;
52104;SDS011;38103;42.776;23.112;2023-04-01T16:21:36;9.65;;;3.75;;
52104;SDS011;38103;42.776;23.112;2023-04-01T16:24:12;10.52;;;3.70;;
52104;SDS011;38103;42.776;23.112;2023-04-01T16:26:40;9.38;;;3.97;;
52104;SDS011;38103;42.776;23.112;2023-04-01T16:32:21;10.77;;;4.28;;
52104;SDS011;38103;42.776;23.112;2023-04-01T16:34:58;10.95;;;3.80;;
52104;SDS011;38103;42.776;23.112;2023-04-01T16:37:56;8.77;;;3.65;;
52104;SDS011;38103;42.776;23.112;2023-04-01T16:40:37;8.60;;;3.60;;
52104;SDS011;38103;42.776;23.112;2023-04-01T16:43:11;9.18;;;3.55;;
52104;SDS011;38103;42.776;23.112;2023-04-01T16:45:54;9.18;;;3.40;;
52104;SDS011;38103;42.776;23.112;2023-04-01T16:48:23;8.02;;;3.22;;
52104;SDS011;38103;42.776;23.112;2023-04-01T16:50:59;7.88;;;3.00;;
52104;SDS011;38103;42.776;23.112;2023-04-01T16:56:22;11.10;;;5.10;;
52104;SDS011;38103;42.776;23.112;2023-04-01T17:01:44;8.90;;;3.65;;
52104;SDS011;38103;42.776;23.112;2023-04-01T17:04:27;8.60;;;3.95;;
52104;SDS011;38103;42.776;23.112;2023-04-01T17:07:05;8.95;;;3.78;;
52104;SDS011;38103;42.776;23.112;2023-04-01T17:10:16;8.52;;;4.07;;
52104;SDS011;38103;42.776;23.112;2023-04-01T17:15:45;8.73;;;3.80;;
52104;SDS011;38103;42.776;23.112;2023-04-01T17:21:10;9.35;;;3.85;;
52104;SDS011;38103;42.776;23.112;2023-04-01T17:23:51;8.80;;;3.72;;
52104;SDS011;38103;42.776;23.112;2023-04-01T17:42:48;8.48;;;4.00;;
52104;SDS011;38103;42.776;23.112;2023-04-01T17:45:30;9.52;;;4.10;;
52104;SDS011;38103;42.776;23.112;2023-04-01T18:23:11;9.65;;;4.05;;
52104;SDS011;38103;42.776;23.112;2023-04-01T18:25:48;8.63;;;3.65;;
52104;SDS011;38103;42.776;23.112;2023-04-01T18:30:57;8.63;;;3.50;;
52104;SDS011;38103;42.776;23.112;2023-04-01T18:33:36;8.55;;;3.80;;
52104;SDS011;38103;42.776;23.112;2023-04-01T18:36:13;8.25;;;3.50;;
52104;SDS011;38103;42.776;23.112;2023-04-01T18:38:48;8.48;;;3.60;;
52104;SDS011;38103;42.776;23.112;2023-04-01T18:44:22;7.90;;;3.50;;
52104;SDS011;38103;42.776;23.112;2023-04-01T18:50:26;9.77;;;3.85;;
52104;SDS011;38103;42.776;23.112;2023-04-01T18:53:18;8.98;;;3.83;;
52104;SDS011;38103;42.776;23.112;2023-04-01T18:55:47;9.05;;;4.07;;
52104;SDS011;38103;42.776;23.112;2023-04-01T18:58:35;8.45;;;3.70;;
52104;SDS011;38103;42.776;23.112;2023-04-01T19:06:57;8.50;;;3.58;;
52104;SDS011;38103;42.776;23.112;2023-04-01T19:09:58;8.23;;;3.45;;
52104;SDS011;38103;42.776;23.112;2023-04-01T19:20:51;7.70;;;3.10;;
52104;SDS011;38103;42.776;23.112;2023-04-01T19:26:26;8.35;;;3.50;;
52104;SDS011;38103;42.776;23.112;2023-04-01T19:34:23;9.07;;;3.63;;
52104;SDS011;38103;42.776;23.112;2023-04-01T19:36:58;9.07;;;3.60;;
52104;SDS011;38103;42.776;23.112;2023-04-01T19:39:34;10.77;;;3.63;;
52104;SDS011;38103;42.776;23.112;2023-04-01T19:50:37;8.93;;;3.50;;
52104;SDS011;38103;42.776;23.112;2023-04-01T19:53:17;8.40;;;3.30;;
52104;SDS011;38103;42.776;23.112;2023-04-01T19:55:55;8.20;;;3.13;;
52104;SDS011;38103;42.776;23.112;2023-04-01T20:01:12;7.45;;;3.00;;
52104;SDS011;38103;42.776;23.112;2023-04-01T20:03:50;7.78;;;3.10;;
52104;SDS011;38103;42.776;23.112;2023-04-01T20:11:59;8.43;;;3.10;;
52104;SDS011;38103;42.776;23.112;2023-04-01T20:17:18;7.20;;;2.90;;
52104;SDS011;38103;42.776;23.112;2023-04-01T20:22:51;8.23;;;3.10;;
52104;SDS011;38103;42.776;23.112;2023-04-01T20:25:42;7.50;;;2.90;;
52104;SDS011;38103;42.776;23.112;2023-04-01T20:28:20;7.93;;;3.00;;
52104;SDS011;38103;42.776;23.112;2023-04-01T20:33:41;7.05;;;2.70;;
52104;SDS011;38103;42.776;23.112;2023-04-01T20:42:47;7.68;;;3.05;;
52104;SDS011;38103;42.776;23.112;2023-04-01T20:47:44;7.22;;;2.88;;
52104;SDS011;38103;42.776;23.112;2023-04-01T20:53:14;7.47;;;2.90;;
52104;SDS011;38103;42.776;23.112;2023-04-01T21:06:37;8.20;;;3.20;;
52104;SDS011;38103;42.776;23.112;2023-04-01T21:09:13;8.27;;;3.22;;
52104;SDS011;38103;42.776;23.112;2023-04-01T21:15:23;8.55;;;3.30;;
52104;SDS011;38103;42.776;23.112;2023-04-01T21:20:15;8.15;;;3.10;;
52104;SDS011;38103;42.776;23.112;2023-04-01T21:25:32;6.80;;;2.70;;
52104;SDS011;38103;42.776;23.112;2023-04-01T21:42:17;7.63;;;3.00;;
52104;SDS011;38103;42.776;23.112;2023-04-01T22:06:56;8.13;;;2.80;;
52104;SDS011;38103;42.776;23.112;2023-04-01T22:12:05;7.25;;;2.83;;
52104;SDS011;38103;42.776;23.112;2023-04-01T22:15:01;7.82;;;2.75;;
52104;SDS011;38103;42.776;23.112;2023-04-01T22:17:47;9.23;;;3.72;;
52104;SDS011;38103;42.776;23.112;2023-04-01T22:26:27;7.55;;;3.05;;
52104;SDS011;38103;42.776;23.112;2023-04-01T22:29:00;8.73;;;2.67;;
52104;SDS011;38103;42.776;23.112;2023-04-01T22:31:47;6.88;;;2.70;;
52104;SDS011;38103;42.776;23.112;2023-04-01T22:34:33;6.43;;;2.40;;
52104;SDS011;38103;42.776;23.112;2023-04-01T22:37:24;6.97;;;2.70;;
52104;SDS011;38103;42.776;23.112;2023-04-01T22:42:58;7.90;;;2.80;;
52104;SDS011;38103;42.776;23.112;2023-04-01T22:45:38;6.85;;;2.53;;
52104;SDS011;38103;42.776;23.112;2023-04-01T22:53:18;6.60;;;2.50;;
52104;SDS011;38103;42.776;23.112;2023-04-01T22:55:49;7.13;;;2.90;;
52104;SDS011;38103;42.776;23.112;2023-04-01T22:58:21;7.35;;;2.67;;
52104;SDS011;38103;42.776;23.112;2023-04-01T23:00:56;6.93;;;2.80;;
52104;SDS011;38103;42.776;23.112;2023-04-01T23:03:28;6.60;;;2.60;;
52104;SDS011;38103;42.776;23.112;2023-04-01T23:05:57;9.45;;;2.78;;
52104;SDS011;38103;42.776;23.112;2023-04-01T23:11:10;7.43;;;3.00;;
52104;SDS011;38103;42.776;23.112;2023-04-01T23:13:44;6.72;;;2.50;;
52104;SDS011;38103;42.776;23.112;2023-04-01T23:16:34;7.25;;;2.63;;
52104;SDS011;38103;42.776;23.112;2023-04-01T23:19:11;6.28;;;2.35;;
52104;SDS011;38103;42.776;23.112;2023-04-01T23:27:33;5.43;;;2.20;;
52104;SDS011;38103;42.776;23.112;2023-04-01T23:30:51;5.60;;;2.30;;
52104;SDS011;38103;42.776;23.112;2023-04-01T23:35:53;6.40;;;2.50;;
52104;SDS011;38103;42.776;23.112;2023-04-01T23:38:30;5.13;;;2.20;;
52104;SDS011;38103;42.776;23.112;2023-04-01T23:40:57;5.68;;;2.30;;
52104;SDS011;38103;42.776;23.112;2023-04-01T23:43:27;6.38;;;2.40;;
52104;SDS011;38103;42.776;23.112;2023-04-01T23:45:56;7.03;;;2.40;;
52104;SDS011;38103;42.776;23.112;2023-04-01T23:48:27;7.72;;;2.60;;
52104;SDS011;38103;42.776;23.112;2023-04-01T23:51:21;6.82;;;2.53;;
52104;SDS011;38103;42.776;23.112;2023-04-01T23:53:57;7.07;;;2.58;;
52104;SDS011;38103;42.776;23.112;2023-04-01T23:56:37;6.82;;;2.70;;
52104;SDS011;38103;42.776;23.112;2023-04-01T23:59:09;7.50;;;2.50;;
